Flight Track Log - Related Links

Times and Time Zones

All times are in EDT time to prevent confusion due to time zone crossing. See the N717AN flight status page for this flight to view local times or setup timezone preferences in your user account.

Time Position Orientation Groundspeed Altitude Reporting Facility
EDT Latitude Longitude Course Direction KTS MPH feet Rate Location/Type
Wed 08:14:20 PM -23.4290 -46.4780 North 4 5  Level FlightAware ADS-B
Wed 08:15:05 PM -23.4300 -46.4790 223° Southwest 4 5 256 Level FlightAware ADS-B
Wed 08:17:00 PM -23.2202 -46.5915 334° Northwest  Level FlightAware Approximate
Wed 08:18:00 PM -23.1107 -46.6500 334° Northwest  Level FlightAware Approximate
Wed 08:19:00 PM -23.0012 -46.7085 334° Northwest  Level FlightAware Approximate
Wed 08:19:31 PM -23.4300 -46.4780 334° Northwest 5 6  Level FlightAware ADS-B
Wed 08:20:29 PM -23.4310 -46.4780 180° South 6 7 412 Level FlightAware ADS-B
Wed 08:21:05 PM -23.4310 -46.4790 270° West 8 9 465 Level FlightAware ADS-B
Wed 08:21:30 PM -23.4320 -46.4800 223° Southwest 8 9 505 Level FlightAware ADS-B
Wed 08:22:01 PM -23.4320 -46.4810 270° West 7 8 537 Level FlightAware ADS-B
Wed 08:22:11 PM -23.4320 -46.4820 270° West 7 8 583 Level FlightAware ADS-B
Wed 08:23:21 PM -23.4320 -46.4830 270° West 5 6 600 Level FlightAware ADS-B
Wed 08:23:51 PM -23.4330 -46.4840 223° Southwest 3 3 750 Level FlightAware ADS-B
Wed 08:25:25 PM -23.4340 -46.4830 137° Southeast 7 8 840 Level FlightAware ADS-B
Wed 08:26:21 PM -23.4340 -46.4820 90° East 2 2 1,346 Level FlightAware ADS-B
Wed 08:27:06 PM -23.4330 -46.4770 78° East 88 101 2,100 Level FlightAware ADS-B
Wed 08:27:30 PM -23.4280 -46.4620 70° East 3,818 Level FlightAware ADS-B
Wed 08:28:01 PM -23.4200 -46.4320 74° East 189 217 3,500 4,200 Climbing FlightAware ADS-B
Wed 08:28:30 PM -23.4120 -46.4040 73° East 213 245 4,200 1,091 Climbing FlightAware ADS-B
Wed 08:28:45 PM -23.4070 -46.3880 71° East 236 272 4,300 1,111 Climbing FlightAware ADS-B
Wed 08:29:24 PM -23.3940 -46.3430 73° East 273 314 5,200 1,886 Climbing FlightAware ADS-B
Wed 08:29:55 PM -23.3800 -46.2970 72° East 286 329 6,500 2,571 Climbing FlightAware ADS-B
Wed 08:30:20 PM -23.3680 -46.2630 69° East 294 338 7,600 2,400 Climbing FlightAware ADS-B
Wed 08:30:35 PM -23.3540 -46.2460 48° Northeast 296 341 8,100 2,160 Climbing FlightAware ADS-B
Wed 08:30:45 PM -23.3420 -46.2400 25° Northeast 293 337 8,500 2,550 Climbing FlightAware ADS-B
Wed 08:31:15 PM -23.3010 -46.2280 15° North 299 344 9,800 2,000 Climbing FlightAware ADS-B
Wed 08:32:00 PM -23.2390 -46.2120 13° North 332 382 11,000 1,674 Climbing FlightAware ADS-B
Wed 08:32:41 PM -23.1750 -46.1950 14° North 367 422 12,200 2,463 Climbing FlightAware ADS-B
Wed 08:33:35 PM -23.0840 -46.1740 12° North 368 423 14,900 2,810 Climbing FlightAware ADS-B
Wed 08:34:00 PM -23.0400 -46.1790 354° North 373 429 15,900 2,400 Climbing FlightAware ADS-B
Wed 08:34:50 PM -22.9540 -46.1940 351° North 376 433 17,900 1,468 Climbing FlightAware ADS-B
Wed 08:35:34 PM -22.8830 -46.2100 348° North 394 453 18,200 1,926 Climbing FlightAware ADS-B
Wed 08:36:11 PM -22.8060 -46.2230 351° North 403 464 20,500 2,634 Climbing FlightAware ADS-B
Wed 08:36:56 PM -22.7210 -46.2370 351° North 409 471 21,800 1,200 Climbing FlightAware ADS-B
Wed 08:37:41 PM -22.6400 -46.2500 352° North 424 488 22,300 1,875 Climbing FlightAware ADS-B
Wed 08:38:16 PM -22.5610 -46.2630 351° North 439 505 24,300 2,561 Climbing FlightAware ADS-B
Wed 08:39:03 PM -22.4680 -46.2800 350° North 441 507 25,800 1,814 Climbing FlightAware ADS-B
Wed 08:39:42 PM -22.3870 -46.2940 351° North 440 506 26,900 1,600 Climbing FlightAware ADS-B
Wed 08:40:18 PM -22.3140 -46.3060 351° North 454 522 27,800 1,520 Climbing FlightAware ADS-B
Wed 08:40:57 PM -22.2280 -46.3200 351° North 452 520 28,800 1,500 Climbing FlightAware ADS-B
Wed 08:41:42 PM -22.1350 -46.3360 351° North 458 527 29,900 1,341 Climbing FlightAware ADS-B
Wed 08:42:22 PM -22.0490 -46.3520 350° North 473 544 30,700 1,050 Climbing FlightAware ADS-B
Wed 08:43:02 PM -21.9610 -46.3690 350° North 486 559 31,300 977 Climbing FlightAware ADS-B
Wed 08:43:48 PM -21.8700 -46.3850 351° North 487 560 32,100 1,129 Climbing FlightAware ADS-B
Wed 08:44:27 PM -21.7680 -46.4010 352° North 502 578 32,900 692 Climbing FlightAware ADS-B
Wed 08:45:06 PM -21.6930 -46.4130 352° North 500 575 33,000 67 Climbing FlightAware ADS-B
Wed 08:45:56 PM -21.5660 -46.4340 351° North 501 577 33,000  Level FlightAware ADS-B
Wed 08:46:36 PM -21.4700 -46.4500 351° North 503 579 33,000  Level FlightAware ADS-B
Wed 08:47:20 PM -21.3680 -46.4670 351° North 503 579 33,000  Level FlightAware ADS-B
Wed 08:48:02 PM -21.2690 -46.4830 351° North 504 580 33,000  Level FlightAware ADS-B
Wed 08:48:42 PM -21.1770 -46.4980 351° North 504 580 33,000  Level FlightAware ADS-B
Wed 08:49:26 PM -21.0760 -46.5140 352° North 504 580 33,000  Level FlightAware ADS-B
Wed 08:50:09 PM -20.9770 -46.5300 351° North 505 581 33,000  Level FlightAware ADS-B
Wed 08:50:48 PM -20.8860 -46.5450 351° North 508 585 33,000  Level FlightAware ADS-B
Wed 08:51:34 PM -20.7780 -46.5630 351° North 508 585 33,000  Level FlightAware ADS-B
Wed 08:52:14 PM -20.6850 -46.5780 351° North 509 586 33,000  Level FlightAware ADS-B
Wed 08:52:54 PM -20.5920 -46.5930 351° North 508 585 33,000  Level FlightAware ADS-B
Wed 08:53:36 PM -20.4930 -46.6090 351° North 508 585 33,000  Level FlightAware ADS-B
Wed 08:54:18 PM -20.3970 -46.6270 350° North 508 585 33,000  Level FlightAware ADS-B
Wed 08:55:04 PM -20.2890 -46.6470 350° North 511 588 33,000  Level FlightAware ADS-B
Wed 08:55:38 PM -20.2090 -46.6610 351° North 512 589 33,000  Level FlightAware ADS-B
Wed 08:56:27 PM -20.0950 -46.6820 350° North 513 590 33,000  Level FlightAware ADS-B
Wed 08:57:09 PM -19.9970 -46.7000 350° North 512 589 33,000  Level FlightAware ADS-B
Wed 08:57:48 PM -19.9050 -46.7160 351° North 513 590 33,000  Level FlightAware ADS-B
Wed 08:58:33 PM -19.7990 -46.7360 350° North 516 594 33,000  Level FlightAware ADS-B
Wed 08:59:13 PM -19.7040 -46.7530 350° North 517 595 33,000  Level FlightAware ADS-B
Wed 08:59:57 PM -19.5990 -46.7720 350° North 516 594 33,000  Level FlightAware ADS-B
Wed 09:00:37 PM -19.5050 -46.7880 351° North 517 595 33,000  Level FlightAware ADS-B
Wed 09:01:17 PM -19.4110 -46.8050 350° North 516 594 33,000  Level FlightAware ADS-B
Wed 09:02:03 PM -19.3020 -46.8250 350° North 515 593 33,000  Level FlightAware ADS-B
Wed 09:02:45 PM -19.2050 -46.8420 351° North 515 593 33,000  Level FlightAware ADS-B
Wed 09:03:25 PM -19.1080 -46.8570 352° North 517 595 33,000  Level FlightAware ADS-B
Wed 09:04:05 PM -19.0150 -46.8720 351° North 516 594 33,000  Level FlightAware ADS-B
Wed 09:04:47 PM -18.9140 -46.8870 352° North 515 593 33,000  Level FlightAware ADS-B
Wed 09:05:47 PM -18.7730 -46.9090 352° North 512 589 33,000  Level FlightAware ADS-B
Wed 09:06:44 PM -18.6530 -46.9270 352° North 512 589 33,000  Level FlightAware ADS-B
Wed 09:07:21 PM -18.5790 -46.9380 352° North 512 589 33,000  Level FlightAware ADS-B
Wed 09:07:58 PM -18.4670 -46.9500 354° North 512 589 33,000  Level FlightAware ADS-B
Wed 09:08:46 PM -18.3530 -46.9660 352° North 510 587 33,000  Level FlightAware ADS-B
Wed 09:09:24 PM -18.2630 -46.9780 353° North 510 587 33,000  Level FlightAware ADS-B
Wed 09:10:14 PM -18.1440 -46.9940 353° North 511 588 33,000  Level FlightAware ADS-B
Wed 09:10:52 PM -18.0560 -47.0070 352° North 509 586 33,000  Level FlightAware ADS-B
Wed 09:11:50 PM -17.9260 -47.0550 341° North 502 578 33,000 588 Level FlightAware ADS-B
Wed 09:12:34 PM -17.8360 -47.1050 332° Northwest 499 574 34,000 750 Climbing FlightAware ADS-B
Wed 09:13:10 PM -17.7630 -47.1450 332° Northwest 495 570 34,000  Level FlightAware ADS-B
Wed 09:13:56 PM -17.6700 -47.1960 332° Northwest 494 568 34,000  Level FlightAware ADS-B
Wed 09:14:39 PM -17.5940 -47.2380 332° Northwest 495 570 34,000  Level FlightAware ADS-B
Wed 09:15:32 PM -17.4780 -47.3000 333° Northwest 495 570 34,000  Level FlightAware ADS-B
Wed 09:16:10 PM -17.3970 -47.3420 334° Northwest 495 570 34,000  Level FlightAware ADS-B
Wed 09:16:58 PM -17.2980 -47.3940 333° Northwest 495 570 34,000  Level FlightAware ADS-B
Wed 09:17:42 PM -17.2090 -47.4400 334° Northwest 492 566 34,000  Level FlightAware ADS-B
Wed 09:18:16 PM -17.1480 -47.4720 333° Northwest 492 566 34,000  Level FlightAware ADS-B
Wed 09:19:16 PM -17.0220 -47.5370 334° Northwest 491 565 34,000  Level FlightAware ADS-B
Wed 09:20:01 PM -16.9310 -47.5850 333° Northwest 491 565 34,000  Level FlightAware ADS-B
Wed 09:20:42 PM -16.8390 -47.6320 334° Northwest 490 564 34,000  Level FlightAware ADS-B
Wed 09:21:23 PM -16.7710 -47.6670 334° Northwest 492 566 34,000  Level FlightAware ADS-B
Wed 09:22:00 PM -16.6800 -47.7150 333° Northwest 492 566 34,000  Level FlightAware ADS-B
Wed 09:22:50 PM -16.5770 -47.7680 334° Northwest 494 568 34,000  Level FlightAware ADS-B
Wed 09:23:26 PM -16.5030 -47.8060 334° Northwest 495 570 34,000  Level FlightAware ADS-B
Wed 09:24:08 PM -16.4180 -47.8500 334° Northwest 493 567 34,000  Level FlightAware ADS-B
Wed 09:24:54 PM -16.3240 -47.8980 334° Northwest 493 567 34,000  Level FlightAware ADS-B
Wed 09:25:36 PM -16.2370 -47.9430 334° Northwest 493 567 34,000  Level FlightAware ADS-B
Wed 09:26:14 PM -16.1580 -47.9840 334° Northwest 493 567 34,000  Level FlightAware ADS-B
Wed 09:27:00 PM -16.0650 -48.0320 334° Northwest 492 566 34,000  Level FlightAware ADS-B
Wed 09:27:44 PM -15.9760 -48.0780 334° Northwest 492 566 34,000  Level FlightAware ADS-B
Wed 09:28:24 PM -15.8930 -48.1200 334° Northwest 492 566 34,000  Level FlightAware ADS-B
Wed 09:29:06 PM -15.8080 -48.1640 334° Northwest 493 567 34,000  Level FlightAware ADS-B
Wed 09:29:46 PM -15.7260 -48.2060 334° Northwest 495 570 34,000  Level FlightAware ADS-B
Wed 09:30:43 PM -15.6090 -48.2660 334° Northwest 493 567 34,000  Level FlightAware ADS-B
Wed 09:31:24 PM -15.5250 -48.3090 334° Northwest 492 566 34,000  Level FlightAware ADS-B
Wed 09:32:21 PM -15.4070 -48.3690 334° Northwest 491 565 34,000  Level FlightAware ADS-B
Wed 09:33:06 PM -15.3160 -48.4150 334° Northwest 490 564 34,000  Level FlightAware ADS-B
Wed 09:33:41 PM -15.2450 -48.4510 334° Northwest 489 563 34,000  Level FlightAware ADS-B
Wed 09:34:26 PM -15.1530 -48.4980 334° Northwest 487 560 34,000  Level FlightAware ADS-B
Wed 09:35:09 PM -15.0660 -48.5420 334° Northwest 487 560 34,000  Level FlightAware ADS-B
Wed 09:36:07 PM -14.9620 -48.5970 333° Northwest 487 560 34,000  Level FlightAware ADS-B
Wed 09:36:34 PM -14.8980 -48.6280 335° Northwest 488 562 34,000  Level FlightAware ADS-B
Wed 09:37:09 PM -14.8300 -48.6620 334° Northwest 487 560 34,000  Level FlightAware ADS-B
Wed 09:37:59 PM -14.7210 -48.7170 334° Northwest 488 562 34,000  Level FlightAware ADS-B
Wed 09:38:37 PM -14.6710 -48.7430 333° Northwest 487 560 34,000  Level FlightAware ADS-B
Wed 09:39:16 PM -14.6020 -48.7780 334° Northwest 488 562 34,000  Level FlightAware ADS-B
Wed 09:40:06 PM -14.5170 -48.8230 333° Northwest 488 562 34,000  Level FlightAware ADS-B
Wed 09:41:03 PM -14.4190 -48.8750 333° Northwest 488 562 34,000  Level FlightAware ADS-B
Wed 09:41:40 PM -14.3560 -48.9080 333° Northwest 488 562 34,000  Level FlightAware ADS-B
Wed 09:42:17 PM -14.2930 -48.9410 333° Northwest 488 562 34,000  Level FlightAware ADS-B
Wed 09:43:06 PM -14.2090 -48.9850 333° Northwest 488 562 34,000  Level FlightAware ADS-B
Wed 09:43:41 PM -14.1490 -49.0170 333° Northwest 488 562 34,000  Level FlightAware ADS-B
Wed 09:44:29 PM -14.0670 -49.0600 333° Northwest 488 562 34,000  Level FlightAware ADS-B
Wed 09:45:28 PM -13.9660 -49.1130 333° Northwest 488 562 34,000  Level FlightAware ADS-B
Wed 09:46:05 PM -13.9030 -49.1460 333° Northwest 488 562 34,000  Level FlightAware ADS-B
Wed 09:46:42 PM -13.8400 -49.1790 333° Northwest 488 562 34,000  Level FlightAware ADS-B
Wed 09:47:30 PM -13.7580 -49.2220 333° Northwest 488 562 34,000  Level FlightAware ADS-B
Wed 09:48:16 PM -13.6790 -49.2630 333° Northwest 488 562 34,000  Level FlightAware ADS-B
Wed 09:50:00 PM -13.4719 -49.3472 338° Northwest  Level Estimated
Wed 09:51:00 PM -13.3524 -49.3957 338° Northwest  Level Estimated
Wed 09:52:00 PM -13.2329 -49.4442 338° Northwest  Level Estimated
Wed 09:53:00 PM -13.1134 -49.4926 338° Northwest  Level Estimated
Wed 09:54:00 PM -12.9939 -49.5410 338° Northwest  Level Estimated
Wed 09:55:00 PM -12.8743 -49.5894 338° Northwest  Level Estimated
Wed 09:56:00 PM -12.7548 -49.6377 338° Northwest  Level Estimated
Wed 09:57:00 PM -12.6352 -49.6859 339° North  Level Estimated
Wed 09:58:00 PM -12.5157 -49.7341 339° North  Level Estimated
Wed 09:59:00 PM -12.3961 -49.7822 339° North  Level Estimated
Wed 10:00:00 PM -12.2765 -49.8304 339° North  Level Estimated
Wed 10:01:00 PM -12.1569 -49.8784 339° North  Level Estimated
Wed 10:02:00 PM -12.0374 -49.9264 339° North  Level Estimated
Wed 10:03:00 PM -11.9178 -49.9744 339° North  Level Estimated
Wed 10:04:00 PM -11.7982 -50.0224 339° North  Level Estimated
Wed 10:05:00 PM -11.6785 -50.0703 339° North  Level Estimated
Wed 10:06:00 PM -11.5589 -50.1181 339° North  Level Estimated
Wed 10:07:00 PM -11.4393 -50.1659 339° North  Level Estimated
Wed 10:07:11 PM -11.1640 -50.4880 339° North 487 560 34,000  Level FlightAware ADS-B
Wed 10:08:01 PM -11.0780 -50.5310 334° Northwest 487 560 34,000  Level FlightAware ADS-B
Wed 10:08:37 PM -11.0160 -50.5620 334° Northwest 487 560 34,000 Level FlightAware ADS-B
Wed 10:11:00 PM -10.7304 -50.6745 339° North  Level Estimated
Wed 10:12:00 PM -10.6106 -50.7217 339° North  Level Estimated
Wed 10:13:00 PM -10.4908 -50.7688 339° North  Level Estimated
Wed 10:14:00 PM -10.3709 -50.8159 339° North  Level Estimated
Wed 10:15:00 PM -10.2511 -50.8629 339° North  Level Estimated
Wed 10:16:00 PM -10.1312 -50.9099 339° North  Level Estimated
Wed 10:17:00 PM -10.0113 -50.9569 339° North  Level Estimated
Wed 10:18:00 PM -9.8915 -51.0038 339° North  Level Estimated
Wed 10:19:00 PM -9.7716 -51.0507 339° North  Level Estimated
Wed 10:20:00 PM -9.6517 -51.0976 339° North  Level Estimated
Wed 10:21:00 PM -9.5318 -51.1445 339° North  Level Estimated
Wed 10:22:00 PM -9.4119 -51.1912 339° North  Level Estimated
Wed 10:23:00 PM -9.2920 -51.2380 339° North  Level Estimated
Wed 10:24:00 PM -9.1721 -51.2848 339° North  Level Estimated
Wed 10:25:00 PM -9.0522 -51.3315 339° North  Level Estimated
Wed 10:26:00 PM -8.9322 -51.3782 339° North  Level Estimated
Wed 10:27:00 PM -8.8123 -51.4248 339° North  Level Estimated
Wed 10:28:00 PM -8.6924 -51.4714 339° North  Level Estimated
Wed 10:29:00 PM -8.5724 -51.5180 339° North  Level Estimated
Wed 10:30:00 PM -8.4525 -51.5646 339° North  Level Estimated
Wed 10:31:00 PM -8.3325 -51.6111 339° North  Level Estimated
Wed 10:32:00 PM -8.2126 -51.6576 339° North  Level Estimated
Wed 10:33:00 PM -8.0926 -51.7041 339° North  Level Estimated
Wed 10:34:00 PM -7.9726 -51.7505 339° North  Level Estimated
Wed 10:35:00 PM -7.8527 -51.7969 339° North  Level Estimated
Wed 10:36:00 PM -7.7327 -51.8433 339° North  Level Estimated
Wed 10:37:00 PM -7.6127 -51.8897 339° North  Level Estimated
Wed 10:38:00 PM -7.4927 -51.9360 339° North  Level Estimated
Wed 10:39:00 PM -7.3727 -51.9823 339° North  Level Estimated
Wed 10:40:00 PM -7.2527 -52.0286 339° North  Level Estimated
Wed 10:41:00 PM -7.1327 -52.0749 339° North  Level Estimated
Wed 10:42:00 PM -7.0127 -52.1211 339° North  Level Estimated
Wed 10:43:00 PM -6.8927 -52.1673 339° North  Level Estimated
Wed 10:44:00 PM -6.7727 -52.2135 339° North  Level Estimated
Wed 10:45:00 PM -6.6527 -52.2597 339° North  Level Estimated
Wed 10:46:00 PM -6.5326 -52.3058 339° North  Level Estimated
Wed 10:47:00 PM -6.4126 -52.3520 339° North  Level Estimated
Wed 10:48:00 PM -6.2926 -52.3981 339° North  Level Estimated
Wed 10:49:00 PM -6.1726 -52.4441 339° North  Level Estimated
Wed 10:50:00 PM -6.0525 -52.4902 339° North  Level Estimated
Wed 10:51:00 PM -5.9325 -52.5362 339° North  Level Estimated
Wed 10:52:00 PM -5.8124 -52.5823 339° North  Level Estimated
Wed 10:53:00 PM -5.6924 -52.6283 339° North  Level Estimated
Wed 10:54:00 PM -5.5723 -52.6742 339° North  Level Estimated
Wed 10:55:00 PM -5.4523 -52.7202 339° North  Level Estimated
Wed 10:56:00 PM -5.3322 -52.7661 339° North  Level Estimated
Wed 10:57:00 PM -5.2121 -52.8121 339° North  Level Estimated
Wed 10:58:00 PM -5.0921 -52.8580 339° North  Level Estimated
Wed 10:59:00 PM -4.9720 -52.9039 339° North  Level Estimated
Wed 11:00:00 PM -4.8519 -52.9497 339° North  Level Estimated
Wed 11:01:00 PM -4.7318 -52.9956 339° North  Level Estimated
Wed 11:02:00 PM -4.6117 -53.0414 339° North  Level Estimated
Wed 11:03:00 PM -4.4917 -53.0873 339° North  Level Estimated
Wed 11:04:00 PM -4.3716 -53.1331 339° North  Level Estimated
Wed 11:05:00 PM -4.2515 -53.1789 339° North  Level Estimated
Wed 11:06:00 PM -4.1314 -53.2247 339° North  Level Estimated
Wed 11:07:00 PM -4.0113 -53.2704 339° North  Level Estimated
Wed 11:08:00 PM -3.8912 -53.3162 339° North  Level Estimated
Wed 11:09:00 PM -3.7711 -53.3619 339° North  Level Estimated
Wed 11:10:00 PM -3.6510 -53.4076 339° North  Level Estimated
Wed 11:11:00 PM -3.5309 -53.4534 339° North  Level Estimated
Wed 11:12:00 PM -3.4108 -53.4991 339° North  Level Estimated
Wed 11:13:00 PM -3.2906 -53.5448 339° North  Level Estimated
Wed 11:14:00 PM -3.1705 -53.5904 339° North  Level Estimated
Wed 11:15:00 PM -3.0504 -53.6361 339° North  Level Estimated
Wed 11:16:00 PM -2.9303 -53.6818 339° North  Level Estimated
Wed 11:17:00 PM -2.8102 -53.7274 339° North  Level Estimated
Wed 11:18:00 PM -2.6901 -53.7730 339° North  Level Estimated
Wed 11:19:00 PM -2.5700 -53.8187 339° North  Level Estimated
Wed 11:20:00 PM -2.4501 -53.8642 339° North  Level Estimated
Wed 11:21:00 PM -2.3301 -53.9098 339° North  Level Estimated
Wed 11:22:00 PM -2.2102 -53.9553 339° North  Level Estimated
Wed 11:23:00 PM -2.0903 -54.0008 339° North  Level Estimated
Wed 11:24:00 PM -1.9704 -54.0463 339° North  Level Estimated
Wed 11:25:00 PM -1.8505 -54.0918 339° North  Level Estimated
Wed 11:26:00 PM -1.7306 -54.1373 339° North  Level Estimated
Wed 11:27:00 PM -1.6107 -54.1828 339° North  Level Estimated
Wed 11:28:00 PM -1.4908 -54.2283 339° North  Level Estimated
Wed 11:29:00 PM -1.3708 -54.2738 339° North  Level Estimated
Wed 11:30:00 PM -1.2509 -54.3192 339° North  Level Estimated
Wed 11:31:00 PM -1.1310 -54.3647 339° North  Level Estimated
Wed 11:32:00 PM -1.0111 -54.4102 339° North  Level Estimated
Wed 11:33:00 PM -0.8912 -54.4557 339° North  Level Estimated
Wed 11:34:00 PM -0.7713 -54.5011 339° North  Level Estimated
Wed 11:35:00 PM -0.6513 -54.5466 339° North  Level Estimated
Wed 11:36:00 PM -0.5314 -54.5920 339° North  Level Estimated
Wed 11:37:00 PM -0.4115 -54.6375 339° North  Level Estimated
Wed 11:38:00 PM -0.2916 -54.6830 339° North  Level Estimated
Wed 11:39:00 PM -0.1717 -54.7284 339° North  Level Estimated
Wed 11:40:00 PM -0.0517 -54.7739 339° North  Level Estimated
Wed 11:41:00 PM 0.0682 -54.8193 339° North  Level Estimated
Wed 11:42:00 PM 0.1881 -54.8648 339° North  Level Estimated
Wed 11:43:00 PM 0.3080 -54.9102 339° North  Level Estimated
Wed 11:44:00 PM 0.4279 -54.9557 339° North  Level Estimated
Wed 11:45:00 PM 0.5479 -55.0011 339° North  Level Estimated
Wed 11:46:00 PM 0.6678 -55.0466 339° North  Level Estimated
Wed 11:47:00 PM 0.7877 -55.0920 339° North  Level Estimated
Wed 11:48:00 PM 0.9076 -55.1375 339° North  Level Estimated
Wed 11:49:00 PM 1.0275 -55.1830 339° North  Level Estimated
Wed 11:50:00 PM 1.1475 -55.2285 339° North  Level Estimated
Wed 11:51:00 PM 1.2674 -55.2739 339° North  Level Estimated
Wed 11:52:00 PM 1.3873 -55.3194 339° North  Level Estimated
Wed 11:53:00 PM 1.5072 -55.3649 339° North  Level Estimated
Wed 11:54:00 PM 1.6271 -55.4104 339° North  Level Estimated
Wed 11:55:00 PM 1.7471 -55.4559 339° North  Level Estimated
Wed 11:56:00 PM 1.8670 -55.5014 339° North  Level Estimated
Wed 11:57:00 PM 1.9869 -55.5469 339° North  Level Estimated
Wed 11:58:00 PM 2.1068 -55.5924 339° North  Level Estimated
Wed 11:59:00 PM 2.2267 -55.6379 339° North  Level Estimated
Thu 12:00:00 AM 2.3466 -55.6834 339° North  Level Estimated
Thu 12:01:00 AM 2.4665 -55.7290 339° North  Level Estimated
Thu 12:02:00 AM 2.5864 -55.7745 339° North  Level Estimated
Thu 12:03:00 AM 2.7063 -55.8200 339° North  Level Estimated
Thu 12:04:00 AM 2.8262 -55.8656 339° North  Level Estimated
Thu 12:05:00 AM 2.9461 -55.9112 339° North  Level Estimated
Thu 12:06:00 AM 3.0660 -55.9568 339° North  Level Estimated
Thu 12:07:00 AM 3.1859 -56.0023 339° North  Level Estimated
Thu 12:08:00 AM 3.3058 -56.0480 339° North  Level Estimated
Thu 12:09:00 AM 3.4257 -56.0936 339° North  Level Estimated
Thu 12:10:00 AM 3.5456 -56.1392 339° North  Level Estimated
Thu 12:11:00 AM 3.6655 -56.1848 339° North  Level Estimated
Thu 12:12:00 AM 3.7853 -56.2305 339° North  Level Estimated
Thu 12:13:00 AM 3.9052 -56.2761 339° North  Level Estimated
Thu 12:14:00 AM 4.0251 -56.3218 339° North  Level Estimated
Thu 12:15:00 AM 4.1450 -56.3675 339° North  Level Estimated
Thu 12:16:00 AM 4.2649 -56.4132 339° North  Level Estimated
Thu 12:17:00 AM 4.3847 -56.4589 339° North  Level Estimated
Thu 12:18:00 AM 4.5046 -56.5046 339° North  Level Estimated
Thu 12:19:00 AM 4.6245 -56.5504 339° North  Level Estimated
Thu 12:20:00 AM 4.7443 -56.5961 339° North  Level Estimated
Thu 12:21:00 AM 4.8642 -56.6419 339° North  Level Estimated
Thu 12:22:00 AM 4.9840 -56.6877 339° North  Level Estimated
Thu 12:23:00 AM 5.1039 -56.7335 339° North  Level Estimated
Thu 12:24:00 AM 5.2237 -56.7793 339° North  Level Estimated
Thu 12:25:00 AM 5.3436 -56.8252 339° North  Level Estimated
Thu 12:26:00 AM 5.4634 -56.8710 339° North  Level Estimated
Thu 12:27:00 AM 5.5833 -56.9169 339° North  Level Estimated
Thu 12:28:00 AM 5.7031 -56.9628 339° North  Level Estimated
Thu 12:29:00 AM 5.8229 -57.0087 339° North  Level Estimated
Thu 12:30:00 AM 5.9428 -57.0547 339° North  Level Estimated
Thu 12:31:00 AM 6.0626 -57.1006 339° North  Level Estimated
Thu 12:32:00 AM 6.1824 -57.1466 339° North  Level Estimated
Thu 12:33:00 AM 6.3022 -57.1926 339° North  Level Estimated
Thu 12:34:00 AM 6.4220 -57.2386 339° North  Level Estimated
Thu 12:35:00 AM 6.5419 -57.2847 339° North  Level Estimated
Thu 12:36:00 AM 6.6617 -57.3307 339° North  Level Estimated
Thu 12:37:00 AM 6.7815 -57.3768 339° North  Level Estimated
Thu 12:38:00 AM 6.9011 -57.4228 339° North  Level Estimated
Thu 12:39:00 AM 7.0206 -57.4689 339° North  Level Estimated
Thu 12:40:00 AM 7.1402 -57.5150 339° North  Level Estimated
Thu 12:41:00 AM 7.2597 -57.5611 339° North  Level Estimated
Thu 12:42:00 AM 7.3793 -57.6072 339° North  Level Estimated
Thu 12:43:00 AM 7.4989 -57.6533 339° North  Level Estimated
Thu 12:44:00 AM 7.6184 -57.6995 339° North  Level Estimated
Thu 12:45:00 AM 7.7380 -57.7457 339° North  Level Estimated
Thu 12:46:00 AM 7.8575 -57.7919 339° North  Level Estimated
Thu 12:47:00 AM 7.9770 -57.8382 339° North  Level Estimated
Thu 12:48:00 AM 8.0966 -57.8844 339° North  Level Estimated
Thu 12:49:00 AM 8.2161 -57.9307 339° North  Level Estimated
Thu 12:50:00 AM 8.3356 -57.9771 339° North  Level Estimated
Thu 12:51:00 AM 8.4551 -58.0234 339° North  Level Estimated
Thu 12:52:00 AM 8.5746 -58.0698 339° North  Level Estimated
Thu 12:53:00 AM 8.6941 -58.1162 339° North  Level Estimated
Thu 12:54:00 AM 8.8137 -58.1627 339° North  Level Estimated
Thu 12:55:00 AM 8.9331 -58.2092 339° North  Level Estimated
Thu 12:56:00 AM 9.0526 -58.2557 339° North  Level Estimated
Thu 12:57:00 AM 9.1721 -58.3022 339° North  Level Estimated
Thu 12:58:00 AM 9.2916 -58.3488 339° North  Level Estimated
Thu 12:59:00 AM 9.4110 -58.3954 339° North  Level Estimated
Thu 01:00:00 AM 9.5305 -58.4420 339° North  Level Estimated
Thu 01:01:00 AM 9.6500 -58.4887 339° North  Level Estimated
Thu 01:02:00 AM 9.7694 -58.5354 339° North  Level Estimated
Thu 01:03:00 AM 9.8889 -58.5821 339° North  Level Estimated
Thu 01:04:00 AM 10.0083 -58.6289 339° North  Level Estimated
Thu 01:05:00 AM 10.1277 -58.6757 339° North  Level Estimated
Thu 01:06:00 AM 10.2472 -58.7225 339° North  Level Estimated
Thu 01:07:00 AM 10.3666 -58.7694 339° North  Level Estimated
Thu 01:08:00 AM 10.4860 -58.8163 339° North  Level Estimated
Thu 01:09:00 AM 10.6054 -58.8633 339° North  Level Estimated
Thu 01:10:00 AM 10.7248 -58.9102 339° North  Level Estimated
Thu 01:11:00 AM 10.8442 -58.9572 339° North  Level Estimated
Thu 01:12:00 AM 10.9635 -59.0043 339° North  Level Estimated
Thu 01:13:00 AM 11.0829 -59.0514 339° North  Level Estimated
Thu 01:14:00 AM 11.2023 -59.0985 339° North  Level Estimated
Thu 01:15:00 AM 11.3217 -59.1457 339° North  Level Estimated
Thu 01:16:00 AM 11.4410 -59.1929 339° North  Level Estimated
Thu 01:17:00 AM 11.5604 -59.2402 339° North  Level Estimated
Thu 01:18:00 AM 11.6797 -59.2874 339° North  Level Estimated
Thu 01:19:00 AM 11.7990 -59.3348 339° North  Level Estimated
Thu 01:20:00 AM 11.9184 -59.3821 339° North  Level Estimated
Thu 01:21:00 AM 12.0377 -59.4296 339° North  Level Estimated
Thu 01:22:00 AM 12.1570 -59.4770 339° North  Level Estimated
Thu 01:23:00 AM 12.2763 -59.5245 339° North  Level Estimated
Thu 01:24:00 AM 12.3956 -59.5720 339° North  Level Estimated
Thu 01:25:00 AM 12.5148 -59.6196 339° North  Level Estimated
Thu 01:26:00 AM 12.6341 -59.6673 339° North  Level Estimated
Thu 01:27:00 AM 12.7534 -59.7149 339° North  Level Estimated
Thu 01:28:00 AM 12.8726 -59.7626 339° North  Level Estimated
Thu 01:29:00 AM 12.9919 -59.8104 339° North  Level Estimated
Thu 01:30:00 AM 13.1111 -59.8582 339° North  Level Estimated
Thu 01:31:00 AM 13.2304 -59.9061 339° North  Level Estimated
Thu 01:32:00 AM 13.3496 -59.9540 339° North  Level Estimated
Thu 01:33:00 AM 13.4688 -60.0019 339° North  Level Estimated
Thu 01:34:00 AM 13.5880 -60.0499 339° North  Level Estimated
Thu 01:35:00 AM 13.7072 -60.0980 339° North  Level Estimated
Thu 01:36:00 AM 13.8264 -60.1461 339° North  Level Estimated
Thu 01:37:00 AM 13.9455 -60.1942 339° North  Level Estimated
Thu 01:38:00 AM 14.0647 -60.2424 339° North  Level Estimated
Thu 01:39:00 AM 14.1841 -60.2907 339° North  Level Estimated
Thu 01:40:00 AM 14.3034 -60.3391 339° North  Level Estimated
Thu 01:41:00 AM 14.4228 -60.3875 339° North  Level Estimated
Thu 01:42:00 AM 14.5421 -60.4360 339° North  Level Estimated
Thu 01:43:00 AM 14.6615 -60.4846 339° North  Level Estimated
Thu 01:44:00 AM 14.7808 -60.5332 339° North  Level Estimated
Thu 01:45:00 AM 14.9001 -60.5818 338° Northwest  Level Estimated
Thu 01:46:00 AM 15.0194 -60.6305 338° Northwest  Level Estimated
Thu 01:47:00 AM 15.1387 -60.6793 338° Northwest  Level Estimated
Thu 01:48:00 AM 15.2580 -60.7281 338° Northwest  Level Estimated
Thu 01:49:00 AM 15.3772 -60.7769 338° Northwest  Level Estimated
Thu 01:50:00 AM 15.4963 -60.8258 338° Northwest  Level Estimated
Thu 01:51:00 AM 15.6153 -60.8746 338° Northwest  Level Estimated
Thu 01:52:00 AM 15.7343 -60.9236 338° Northwest  Level Estimated
Thu 01:53:00 AM 15.8533 -60.9726 338° Northwest  Level Estimated
Thu 01:54:00 AM 15.9723 -61.0216 338° Northwest  Level Estimated
Thu 01:55:00 AM 16.0913 -61.0708 338° Northwest  Level Estimated
Thu 01:56:00 AM 16.2103 -61.1199 338° Northwest  Level Estimated
Thu 01:57:00 AM 16.3293 -61.1692 338° Northwest  Level Estimated
Thu 01:58:00 AM 16.4482 -61.2185 338° Northwest  Level Estimated
Thu 01:59:00 AM 16.5672 -61.2678 338° Northwest  Level Estimated
Thu 02:00:00 AM 16.6861 -61.3173 338° Northwest  Level Estimated
Thu 02:01:00 AM 16.8050 -61.3667 338° Northwest  Level Estimated
Thu 02:02:00 AM 16.9239 -61.4163 338° Northwest  Level Estimated
Thu 02:03:00 AM 17.0428 -61.4659 338° Northwest  Level Estimated
Thu 02:04:00 AM 17.1617 -61.5156 338° Northwest  Level Estimated
Thu 02:05:00 AM 17.2806 -61.5653 338° Northwest  Level Estimated
Thu 02:06:00 AM 17.3995 -61.6151 338° Northwest  Level Estimated
Thu 02:06:32 AM 16.5420 -66.0540 338° Northwest 486 559 36,000  Level FlightAware ADS-B
Thu 02:07:00 AM 17.5231 -61.6670 338° Northwest  Level Estimated
Thu 02:07:44 AM 16.6720 -66.1160 335° Northwest 486 559 36,000  Level FlightAware ADS-B
Thu 02:08:23 AM 16.7700 -66.1600 337° Northwest 490 564 36,000  Level FlightAware ADS-B
Thu 02:09:06 AM 16.8610 -66.2030 336° Northwest 489 563 36,000  Level FlightAware ADS-B
Thu 02:09:50 AM 16.9520 -66.2460 336° Northwest 491 565 36,000  Level FlightAware ADS-B
Thu 02:11:39 AM 17.0550 -66.2940 336° Northwest 491 565 36,000  Level FlightAware ADS-B
Thu 02:12:23 AM 17.2700 -66.3950 336° Northwest 491 565 36,000  Level FlightAware ADS-B
Thu 02:13:03 AM 17.3520 -66.4330 336° Northwest 492 566 36,000  Level FlightAware ADS-B
Thu 02:13:46 AM 17.4440 -66.4760 336° Northwest 492 566 36,000  Level FlightAware ADS-B
Thu 02:14:27 AM 17.5280 -66.5160 336° Northwest 494 568 36,000  Level FlightAware ADS-B
Thu 02:15:07 AM 17.5860 -66.5440 335° Northwest 494 568 36,000  Level FlightAware ADS-B
Thu 02:16:06 AM 17.7380 -66.6150 336° Northwest 497 572 36,000  Level FlightAware ADS-B
Thu 02:16:50 AM 17.8280 -66.6580 336° Northwest 498 573 36,000  Level FlightAware ADS-B
Thu 02:17:32 AM 17.9180 -66.7000 336° Northwest 497 572 36,000  Level FlightAware ADS-B
Thu 02:18:12 AM 18.0010 -66.7400 335° Northwest 496 571 36,000  Level FlightAware ADS-B
Thu 02:18:55 AM 18.0910 -66.7820 336° Northwest 498 573 36,000  Level FlightAware ADS-B
Thu 02:19:38 AM 18.1820 -66.8250 336° Northwest 499 574 36,000  Level FlightAware ADS-B
Thu 02:20:18 AM 18.2650 -66.8650 335° Northwest 499 574 36,000  Level FlightAware ADS-B
Thu 02:21:00 AM 18.3570 -66.9080 336° Northwest 499 574 36,000  Level FlightAware ADS-B
Thu 02:21:40 AM 18.4390 -66.9480 335° Northwest 498 573 36,000  Level FlightAware ADS-B
Thu 02:22:23 AM 18.5300 -66.9910 336° Northwest 499 574 36,000  Level FlightAware ADS-B
Thu 02:23:04 AM 18.6160 -67.0320 336° Northwest 499 574 36,000  Level FlightAware ADS-B
Thu 02:23:49 AM 18.7070 -67.0760 335° Northwest 500 575 36,000  Level FlightAware ADS-B
Thu 02:24:30 AM 18.7980 -67.1190 336° Northwest 501 577 36,000  Level FlightAware ADS-B
Thu 02:25:11 AM 18.8850 -67.1610 335° Northwest 499 574 36,000  Level FlightAware ADS-B
Thu 02:25:54 AM 18.9750 -67.2040 336° Northwest 498 573 36,000  Level FlightAware ADS-B
Thu 02:26:35 AM 19.0560 -67.2430 336° Northwest 499 574 36,000  Level FlightAware ADS-B
Thu 02:27:20 AM 19.1570 -67.2920 335° Northwest 501 577 36,000  Level FlightAware ADS-B
Thu 02:27:57 AM 19.2350 -67.3290 336° Northwest 502 578 36,000  Level FlightAware ADS-B
Thu 02:28:41 AM 19.3280 -67.3740 335° Northwest 504 580 36,000  Level FlightAware ADS-B
Thu 02:29:23 AM 19.3980 -67.4080 335° Northwest 503 579 36,000  Level FlightAware ADS-B
Thu 02:30:04 AM 19.5050 -67.4600 335° Northwest 502 578 36,000  Level FlightAware ADS-B
Thu 02:30:30 AM 19.5610 -67.4870 336° Northwest 502 578 36,000  Level FlightAware ADS-B
Thu 02:31:22 AM 19.6710 -67.5390 336° Northwest 501 577 36,000  Level FlightAware ADS-B
Thu 02:32:10 AM 19.7730 -67.5890 335° Northwest 502 578 36,000  Level FlightAware ADS-B
Thu 02:32:50 AM 19.8580 -67.6300 336° Northwest 500 575 36,000  Level FlightAware ADS-B
Thu 02:33:27 AM 19.9330 -67.6670 335° Northwest 499 574 36,000  Level FlightAware ADS-B
Thu 02:34:12 AM 20.0310 -67.7140 336° Northwest 498 573 36,000  Level FlightAware ADS-B
Thu 02:34:54 AM 20.1180 -67.7570 335° Northwest 498 573 36,000  Level FlightAware ADS-B
Thu 02:35:38 AM 20.2110 -67.8020 336° Northwest 498 573 36,000  Level FlightAware ADS-B
Thu 02:36:19 AM 20.2950 -67.8430 335° Northwest 498 573 36,000  Level FlightAware ADS-B
Thu 02:36:58 AM 20.3770 -67.8840 335° Northwest 499 574 36,000  Level FlightAware ADS-B
Thu 02:37:45 AM 20.4750 -67.9320 335° Northwest 499 574 36,000  Level FlightAware ADS-B
Thu 02:38:24 AM 20.5590 -67.9730 335° Northwest 499 574 36,000  Level FlightAware ADS-B
Thu 02:39:09 AM 20.6510 -68.0180 335° Northwest 502 578 36,000  Level FlightAware ADS-B
Thu 02:39:50 AM 20.7400 -68.0600 336° Northwest 503 579 36,000  Level FlightAware ADS-B
Thu 02:40:32 AM 20.8180 -68.0950 337° Northwest 503 579 36,000  Level FlightAware ADS-B
Thu 02:41:16 AM 20.9270 -68.1430 338° Northwest 501 577 36,000  Level FlightAware ADS-B
Thu 02:41:55 AM 20.9970 -68.1760 336° Northwest 502 578 36,000  Level FlightAware ADS-B
Thu 02:42:39 AM 21.0960 -68.2210 337° Northwest 502 578 36,000  Level FlightAware ADS-B
Thu 02:43:15 AM 21.1610 -68.2520 336° Northwest 502 578 36,000  Level FlightAware ADS-B
Thu 02:43:57 AM 21.2370 -68.2880 336° Northwest 502 578 36,000  Level FlightAware ADS-B
Thu 02:44:44 AM 21.3210 -68.3290 336° Northwest 502 578 36,000  Level FlightAware ADS-B
Thu 02:45:06 AM 21.3610 -68.3480 336° Northwest 502 578 36,000  Level FlightAware ADS-B
Thu 02:46:05 AM 21.4670 -68.3980 336° Northwest 502 578 36,000  Level FlightAware ADS-B
Thu 02:46:43 AM 21.5360 -68.4310 336° Northwest 502 578 36,000  Level FlightAware ADS-B
Thu 02:47:31 AM 21.6220 -68.4730 336° Northwest 502 578 36,000  Level FlightAware ADS-B
Thu 02:48:07 AM 21.6870 -68.5040 336° Northwest 502 578 36,000  Level FlightAware ADS-B
Thu 02:49:08 AM 21.7970 -68.5570 336° Northwest 502 578 36,000  Level FlightAware ADS-B
Thu 02:49:45 AM 21.8640 -68.5890 336° Northwest 502 578 36,000  Level FlightAware ADS-B
Thu 02:50:46 AM 21.9740 -68.6410 336° Northwest 502 578 36,000  Level FlightAware ADS-B
Thu 02:51:21 AM 22.0370 -68.6720 335° Northwest 502 578 36,000  Level FlightAware ADS-B
Thu 02:52:10 AM 22.1260 -68.7140 336° Northwest 502 578 36,000  Level FlightAware ADS-B
Thu 02:53:18 AM 22.4636 -68.8503 336° Northwest 503 579 36,000  Level Miami Center
Thu 02:54:17 AM 22.5897 -68.9100 336° Northwest 498 573 36,000  Level Miami Center
Thu 02:55:17 AM 22.7200 -68.9694 337° Northwest 498 573 36,000  Level Miami Center
Thu 02:56:18 AM 22.8481 -69.0267 338° Northwest 498 573 36,000  Level Miami Center
Thu 02:57:18 AM 22.9742 -69.0867 336° Northwest 493 567 36,000  Level Miami Center
Thu 02:58:18 AM 23.1003 -69.1444 337° Northwest 495 570 36,000  Level Miami Center
Thu 02:59:18 AM 23.2328 -69.2086 336° Northwest 495 570 36,000  Level Miami Center
Thu 03:00:18 AM 23.3589 -69.2667 337° Northwest 495 570 36,000  Level Miami Center
Thu 03:01:18 AM 23.4869 -69.3267 337° Northwest 495 570 36,000  Level Miami Center
Thu 03:02:17 AM 23.6108 -69.3850 337° Northwest 495 570 36,000  Level Miami Center
Thu 03:03:17 AM 23.7347 -69.4433 337° Northwest 487 560 36,000  Level Miami Center
Thu 03:04:20 AM 23.8608 -69.5064 335° Northwest 487 560 36,000  Level Miami Center
Thu 03:05:17 AM 23.9800 -69.5561 339° North 482 555 36,000  Level Miami Center
Thu 03:06:17 AM 24.1022 -69.6194 335° Northwest 482 555 36,000  Level Miami Center
Thu 03:07:19 AM 24.2217 -69.6783 336° Northwest 477 549 36,000  Level Miami Center
Thu 03:08:18 AM 24.3433 -69.7306 339° North 467 537 36,000  Level Miami Center
Thu 03:09:19 AM 24.4631 -69.7922 335° Northwest 467 537 36,000  Level Miami Center
Thu 03:10:18 AM 24.5825 -69.8469 337° Northwest 467 537 36,000  Level Miami Center
Thu 03:11:18 AM 24.6997 -69.9019 337° Northwest 467 537 36,000  Level Miami Center
Thu 03:12:17 AM 24.8194 -69.9636 335° Northwest 467 537 36,000  Level Miami Center
Thu 03:13:17 AM 24.9369 -70.0189 337° Northwest 467 537 36,000  Level Miami Center
Thu 03:14:32 AM 25.0000 -70.0500 348° North 463 533 36,000  Level New York Oceanic (ODAPS)
Thu 03:17:56 AM 25.5000 -70.1667 348° North 460 529 36,000  Level San Juan Center
Thu 03:20:00 AM 25.7805 -70.2316 348° North 463 533 36,000  Level FlightAware Transoceanic
Thu 03:20:00 AM 25.6383 -70.1947 350° North  Level Estimated
Thu 03:20:48 AM 25.7000 -70.2167 348° North 462 532 36,000  Level New York Oceanic (ODAPS)
Thu 03:21:00 AM 25.9105 -70.2621 348° North 463 533 36,000  Level FlightAware Transoceanic
Thu 03:22:00 AM 26.0406 -70.2927 348° North 463 533 36,000  Level FlightAware Transoceanic
Thu 03:23:00 AM 26.1706 -70.3233 348° North 463 533 36,000  Level FlightAware Transoceanic
Thu 03:27:00 AM 26.7244 -70.4573 348° North 462 532 36,000  Level FlightAware Transoceanic
Thu 03:28:00 AM 26.8525 -70.4876 348° North 462 532 36,000  Level FlightAware Transoceanic
Thu 03:29:00 AM 26.9805 -70.5181 348° North 462 532 36,000  Level FlightAware Transoceanic
Thu 03:30:00 AM 27.1085 -70.5486 348° North 462 532 36,000  Level FlightAware Transoceanic
Thu 03:31:00 AM 27.2365 -70.5792 348° North 462 532 36,000  Level FlightAware Transoceanic
Thu 03:32:00 AM 27.3645 -70.6098 348° North 462 532 36,000  Level FlightAware Transoceanic
Thu 03:33:00 AM 27.4925 -70.6405 348° North 462 532 36,000  Level FlightAware Transoceanic
Thu 03:33:15 AM 27.4333 -70.6167 348° North 458 527 36,000  Level New York Oceanic (ODAPS)
Thu 03:34:00 AM 27.6205 -70.6713 348° North 462 532 36,000  Level FlightAware Transoceanic
Thu 03:35:00 AM 27.7485 -70.7022 348° North 462 532 36,000  Level FlightAware Transoceanic
Thu 03:36:00 AM 27.8765 -70.7331 348° North 462 532 36,000  Level FlightAware Transoceanic
Thu 03:37:00 AM 28.0044 -70.7642 348° North 462 532 36,000  Level FlightAware Transoceanic
Thu 03:38:00 AM 28.1324 -70.7952 348° North 462 532 36,000  Level FlightAware Transoceanic
Thu 03:39:00 AM 28.2334 -70.8154 348° North 458 527 36,000  Level FlightAware Transoceanic
Thu 03:40:00 AM 28.3668 -70.8488 348° North 458 527 36,000  Level FlightAware Transoceanic
Thu 03:41:00 AM 28.5001 -70.8823 348° North 458 527 36,000  Level FlightAware Transoceanic
Thu 03:42:00 AM 28.6334 -70.9159 348° North 458 527 36,000  Level FlightAware Transoceanic
Thu 03:43:00 AM 28.7667 -70.9496 348° North 458 527 36,000  Level FlightAware Transoceanic
Thu 03:44:00 AM 28.9000 -70.9833 348° North 458 527 36,000  Level FlightAware Transoceanic
Thu 03:44:52 AM 28.8500 -70.9667 344° North 458 527 36,000  Level New York Oceanic (ODAPS)
Thu 03:45:00 AM 29.0272 -71.0146 348° North 458 527 36,000  Level FlightAware Transoceanic
Thu 03:46:00 AM 29.1545 -71.0459 348° North 458 527 36,000  Level FlightAware Transoceanic
Thu 03:47:00 AM 29.2817 -71.0773 348° North 458 527 36,000  Level FlightAware Transoceanic
Thu 03:47:06 AM 29.1500 -71.0333 348° North 458 527 36,000  Level New York Oceanic (ODAPS)
Thu 03:48:00 AM 29.4089 -71.1088 348° North 458 527 36,000  Level FlightAware Transoceanic
Thu 03:49:00 AM 29.5361 -71.1404 348° North 458 527 36,000  Level FlightAware Transoceanic
Thu 03:50:00 AM 29.6633 -71.1720 348° North 458 527 36,000  Level FlightAware Transoceanic
Thu 03:51:00 AM 29.6633 -71.1720 348° North 458 527 36,000  Level FlightAware Transoceanic
Thu 03:52:00 AM 29.7905 -71.2038 348° North 458 527 36,000  Level FlightAware Transoceanic
Thu 03:53:00 AM 29.9140 -71.2249 348° North 458 527 36,000  Level FlightAware Transoceanic
Thu 03:54:00 AM 30.0413 -71.2571 348° North 458 527 36,000  Level FlightAware Transoceanic
Thu 03:55:00 AM 30.1686 -71.2894 348° North 458 527 36,000  Level FlightAware Transoceanic
Thu 03:56:00 AM 30.2958 -71.3218 348° North 458 527 36,000  Level FlightAware Transoceanic
Thu 03:57:00 AM 30.4231 -71.3542 348° North 458 527 36,000  Level FlightAware Transoceanic
Thu 03:58:00 AM 30.5504 -71.3868 348° North 458 527 36,000  Level FlightAware Transoceanic
Thu 03:59:00 AM 30.6776 -71.4194 348° North 458 527 36,000  Level FlightAware Transoceanic
Thu 04:00:00 AM 30.8049 -71.4521 348° North 458 527 36,000  Level FlightAware Transoceanic
Thu 04:01:01 AM 30.8833 -71.4833 348° North 470 541 36,000 237 Level New York Oceanic (ODAPS)
Thu 04:08:27 AM 31.8333 -71.7167 347° North 500 575 38,000 246 Climbing New York Oceanic (ODAPS)
Thu 04:09:09 AM 31.9000 -71.7333 347° North 633 728 38,000  Level New York Oceanic (ODAPS)
Thu 04:11:14 AM 32.0500 -71.7833 348° North 475 547 38,000  Level New York Oceanic (ODAPS)
Thu 04:21:24 AM 32.6389 -73.4931 348° North 484 557 38,000 -9 Level New York Center
Thu 04:22:26 AM 32.7564 -73.5414 341° North 479 551 37,900  Descending New York Center
Thu 04:23:24 AM 32.8889 -73.5828 345° North 490 564 38,000  Climbing New York Center
Thu 04:24:24 AM 33.0214 -73.6219 347° North 484 557 37,900  Descending New York Center
Thu 04:24:27 AM 33.3000 -72.1167 347° North 696 801 38,000 100 Climbing New York Oceanic (ODAPS)
Thu 04:25:24 AM 33.1581 -73.6589 347° North 483 556 38,000  Level New York Center
Thu 04:25:46 AM 33.4667 -72.1667 348° North 664 764 38,000  Level New York Oceanic (ODAPS)
Thu 04:26:26 AM 33.2758 -73.7028 348° North 474 545 38,000  Level New York Center
Thu 04:26:59 AM 33.5333 -72.1833 357° North 217 250 38,000  Level New York Oceanic (ODAPS)
Thu 04:27:49 AM 33.5500 -72.1833 357° North 622 716 38,000 -70 Level New York Oceanic (ODAPS)
Thu 04:28:25 AM 33.5647 -73.7331 357° North 485 558 37,900  Descending New York Center
Thu 04:29:14 AM 33.5500 -72.1833 357° North 588 677 38,000  Climbing New York Oceanic (ODAPS)
Thu 04:30:26 AM 33.8428 -73.7008 357° North 487 560 37,900  Descending New York Center
Thu 04:31:24 AM 33.9711 -73.6631 14° North 505 581 38,000 50 Climbing New York Center
Thu 04:32:25 AM 33.6833 -72.1833 357° North 458 527 38,000  Level New York Oceanic (ODAPS)
Thu 04:32:25 AM 34.1053 -73.6278 357° North 499 574 38,000  Level New York Center
Thu 04:33:10 AM 33.9333 -72.2000 357° North 480 552 38,000  Level New York Oceanic (ODAPS)
Thu 04:34:26 AM 34.3806 -73.5444 357° North 497 572 38,000  Level New York Center
Thu 04:35:26 AM 34.5172 -73.5064 13° North 492 566 38,000 -50 Level New York Center
Thu 04:36:26 AM 34.6494 -73.4681 13° North 487 560 37,900  Descending New York Center
Thu 04:37:25 AM 34.7858 -73.4297 13° North 494 568 38,000 50 Climbing New York Center
Thu 04:38:26 AM 34.9203 -73.3939 12° North 488 562 38,000 -49 Level New York Center
Thu 04:39:27 AM 35.0589 -73.3478 15° North 493 567 37,900  Descending New York Center
Thu 04:40:25 AM 35.1911 -73.3089 14° North 488 562 38,000  Climbing New York Center
Thu 04:41:25 AM 35.3278 -73.2700 13° North 501 577 37,900  Descending New York Center
Thu 04:42:25 AM 35.4811 -73.2239 14° North 500 575 38,000 50 Climbing New York Center
Thu 04:43:24 AM 35.6239 -73.1800 14° North 507 583 38,000  Level New York Center
Thu 04:44:26 AM 35.7561 -73.1381 14° North 507 583 38,000  Level New York Center
Thu 04:45:25 AM 35.8925 -73.0986 13° North 507 583 38,000 -50 Level New York Center
Thu 04:46:25 AM 36.0311 -73.0567 14° North 507 583 37,900  Descending New York Center
Thu 04:47:24 AM 36.1694 -73.0119 15° North 507 583 38,000 15 Climbing New York Center
Thu 04:53:00 AM 36.9497 -72.7672 15° North 524 603 38,000  Level FlightAware ADS-B
Thu 04:53:31 AM 37.0211 -72.7444 14° North 522 601 38,000  Level FlightAware ADS-B
Thu 04:54:04 AM 37.0976 -72.7200 14° North 521 600 38,000  Level FlightAware ADS-B
Thu 04:54:35 AM 37.1708 -72.6967 14° North 521 600 38,000  Level FlightAware ADS-B
Thu 04:55:13 AM 37.2592 -72.6687 14° North 521 600 38,000  Level FlightAware ADS-B
Thu 04:55:28 AM 37.2941 -72.6611 10° North 511 588 38,000  Level FlightAware ADS-B
Thu 04:55:40 AM 37.3224 -72.6584 North 505 581 38,000  Level FlightAware ADS-B
Thu 04:55:57 AM 37.3628 -72.6597 359° North 494 568 38,000  Level FlightAware ADS-B
Thu 04:56:14 AM 37.4006 -72.6670 351° North 483 556 38,000  Level FlightAware ADS-B
Thu 04:56:23 AM 37.4202 -72.6730 346° North 476 548 38,000  Level FlightAware ADS-B
Thu 04:56:43 AM 37.4609 -72.6915 340° North 466 536 38,000  Level FlightAware ADS-B
Thu 04:57:15 AM 37.5222 -72.7294 334° Northwest 462 532 38,000  Level FlightAware ADS-B
Thu 04:57:46 AM 37.5800 -72.7660 333° Northwest 463 533 38,000  Level FlightAware ADS-B
Thu 04:58:16 AM 37.6378 -72.8025 333° Northwest 460 529 38,000  Level FlightAware ADS-B
Thu 04:58:46 AM 37.6957 -72.8391 333° Northwest 458 527 38,000  Level FlightAware ADS-B
Thu 04:59:07 AM 37.7362 -72.8629 335° Northwest 461 531 38,000  Level FlightAware ADS-B
Thu 04:59:38 AM 37.7981 -72.8925 339° North 467 537 38,000  Level FlightAware ADS-B
Thu 05:00:08 AM 37.8597 -72.9188 341° North 467 537 38,000  Level FlightAware ADS-B
Thu 05:00:39 AM 37.9216 -72.9449 342° North 466 536 38,000  Level FlightAware ADS-B
Thu 05:01:09 AM 37.9830 -72.9707 342° North 464 534 38,000 -800 Level FlightAware ADS-B
Thu 05:01:39 AM 38.0437 -72.9961 342° North 456 525 37,200 -2,300 Descending FlightAware ADS-B
Thu 05:02:09 AM 38.1050 -73.0224 341° North 471 542 35,700 -2,459 Descending FlightAware ADS-B
Thu 05:02:40 AM 38.1687 -73.0498 341° North 479 551 34,700 -1,672 Descending FlightAware ADS-B
Thu 05:03:10 AM 38.2336 -73.0776 341° North 480 552 34,000 -1,200 Descending FlightAware ADS-B
Thu 05:03:40 AM 38.2969 -73.1048 341° North 478 550 33,500 -787 Descending FlightAware ADS-B
Thu 05:04:11 AM 38.3599 -73.1317 341° North 471 542 33,200 -1,200 Descending FlightAware ADS-B
Thu 05:04:50 AM 38.4395 -73.1658 341° North 464 534 32,100 -1,898 Descending FlightAware ADS-B
Thu 05:05:49 AM 38.5570 -73.2160 342° North 447 514 30,100 -2,051 Descending FlightAware ADS-B
Thu 05:06:09 AM 38.5970 -73.2336 341° North 442 509 29,400 -2,235 Descending FlightAware ADS-B
Thu 05:06:40 AM 38.6566 -73.2595 341° North 438 504 28,200 -2,032 Descending FlightAware ADS-B
Thu 05:07:11 AM 38.7144 -73.2847 341° North 428 493 27,300 -1,672 Descending FlightAware ADS-B
Thu 05:07:41 AM 38.7696 -73.3087 341° North 418 481 26,500 -1,875 Descending FlightAware ADS-B
Thu 05:08:15 AM 38.8288 -73.3343 341° North 384 442 25,300 -2,222 Descending FlightAware ADS-B
Thu 05:09:02 AM 38.9067 -73.3682 341° North 376 433 23,500 -2,250 Descending FlightAware ADS-B
Thu 05:09:35 AM 38.9591 -73.3911 341° North 363 418 22,300 -2,190 Descending FlightAware ADS-B
Thu 05:10:05 AM 39.0061 -73.4115 341° North 356 410 21,200 -1,967 Descending FlightAware ADS-B
Thu 05:10:36 AM 39.0530 -73.4323 341° North 343 395 20,300 -1,905 Descending FlightAware ADS-B
Thu 05:11:08 AM 39.1019 -73.4536 341° North 348 400 19,200 -1,935 Descending FlightAware ADS-B
Thu 05:11:38 AM 39.1479 -73.4739 341° North 345 397 18,300 -1,655 Descending FlightAware ADS-B
Thu 05:12:06 AM 39.1889 -73.4920 341° North 343 395 17,600 -1,655 Descending FlightAware ADS-B
Thu 05:12:36 AM 39.2348 -73.5121 341° North 336 387 16,700 -1,770 Descending FlightAware ADS-B
Thu 05:13:07 AM 39.2796 -73.5318 341° North 334 384 15,800 -1,548 Descending FlightAware ADS-B
Thu 05:13:38 AM 39.3237 -73.5514 341° North 328 377 15,100 -1,475 Descending FlightAware ADS-B
Thu 05:14:08 AM 39.3672 -73.5704 341° North 324 373 14,300 -1,574 Descending FlightAware ADS-B
Thu 05:14:39 AM 39.4102 -73.5897 341° North 323 372 13,500 -1,574 Descending FlightAware ADS-B
Thu 05:15:09 AM 39.4526 -73.6084 341° North 321 369 12,700 -1,600 Descending FlightAware ADS-B
Thu 05:15:39 AM 39.4949 -73.6271 341° North 318 366 11,900 -1,600 Descending FlightAware ADS-B
Thu 05:16:09 AM 39.5369 -73.6458 341° North 316 364 11,100 -1,100 Descending FlightAware ADS-B
Thu 05:16:39 AM 39.5774 -73.6639 341° North 299 344 10,800 -787 Descending FlightAware ADS-B
Thu 05:17:10 AM 39.6163 -73.6813 341° North 289 333 10,300 -1,043 Descending FlightAware ADS-B
Thu 05:17:25 AM 39.6359 -73.6899 341° North 288 331 10,000 -1,241 Descending FlightAware ADS-B
Thu 05:17:39 AM 39.6527 -73.6974 341° North 287 330 9,700 -1,241 Descending FlightAware ADS-B
Thu 05:17:54 AM 39.6719 -73.7060 341° North 284 327 9,400 -1,125 Descending FlightAware ADS-B
Thu 05:18:11 AM 39.6930 -73.7154 341° North 281 323 9,100 -973 Descending FlightAware ADS-B
Thu 05:18:31 AM 39.7176 -73.7263 341° North 281 323 8,800 -522 Descending FlightAware ADS-B
Thu 05:18:57 AM 39.7497 -73.7407 341° North 280 322 8,700 -125 Descending FlightAware ADS-B
Thu 05:19:19 AM 39.7767 -73.7528 341° North 279 321 8,700  Level FlightAware ADS-B
Thu 05:19:57 AM 39.8228 -73.7736 341° North 278 320 8,700  Level FlightAware ADS-B
Thu 05:20:14 AM 39.8426 -73.7823 341° North 278 320 8,700  Level FlightAware ADS-B
Thu 05:20:29 AM 39.8613 -73.7908 341° North 278 320 8,700  Level FlightAware ADS-B
Thu 05:20:44 AM 39.8800 -73.7992 341° North 279 321 8,700  Level FlightAware ADS-B
Thu 05:20:59 AM 39.8986 -73.8075 341° North 280 322 8,700  Level FlightAware ADS-B
Thu 05:21:15 AM 39.9179 -73.8162 341° North 279 321 8,700  Level FlightAware ADS-B
Thu 05:21:30 AM 39.9362 -73.8245 341° North 279 321 8,700  Level FlightAware ADS-B
Thu 05:21:49 AM 39.9591 -73.8347 341° North 280 322 8,700  Level FlightAware ADS-B
Thu 05:22:04 AM 39.9782 -73.8434 341° North 281 323 8,700  Level FlightAware ADS-B
Thu 05:22:14 AM 39.9903 -73.8485 342° North 279 321 8,700  Level FlightAware ADS-B
Thu 05:22:18 AM 39.9955 -73.8498 349° North 279 321 8,700  Level FlightAware ADS-B
Thu 05:22:25 AM 40.0036 -73.8504 357° North 280 322 8,700  Level FlightAware ADS-B
Thu 05:22:28 AM 40.0079 -73.8499 North 282 325 8,700  Level FlightAware ADS-B
Thu 05:22:33 AM 40.0146 -73.8480 12° North 284 327 8,700  Level FlightAware ADS-B
Thu 05:22:38 AM 40.0207 -73.8451 20° North 286 329 8,700  Level FlightAware ADS-B
Thu 05:22:42 AM 40.0250 -73.8425 25° Northeast 287 330 8,700  Level FlightAware ADS-B
Thu 05:22:49 AM 40.0331 -73.8369 28° Northeast 288 331 8,700  Level FlightAware ADS-B
Thu 05:23:04 AM 40.0510 -73.8236 30° Northeast 289 333 8,700 -188 Level FlightAware ADS-B
Thu 05:23:21 AM 40.0707 -73.8091 29° Northeast 288 331 8,600 -968 Descending FlightAware ADS-B
Thu 05:23:35 AM 40.0876 -73.7969 29° Northeast 289 333 8,200 -1,655 Descending FlightAware ADS-B
Thu 05:23:50 AM 40.1052 -73.7845 28° Northeast 285 328 7,800 -1,688 Descending FlightAware ADS-B
Thu 05:24:07 AM 40.1245 -73.7709 28° Northeast 279 321 7,300 -1,941 Descending FlightAware ADS-B
Thu 05:24:24 AM 40.1426 -73.7583 28° Northeast 271 312 6,700 -2,455 Descending FlightAware ADS-B
Thu 05:24:51 AM 40.1731 -73.7369 28° Northeast 268 308 5,500 -2,657 Descending FlightAware ADS-B
Thu 05:25:34 AM 40.2193 -73.7053 28° Northeast 265 305 3,600 -2,571 Descending FlightAware ADS-B
Thu 05:25:54 AM 40.2410 -73.6904 28° Northeast 265 305 2,800 -857 Descending FlightAware ADS-B
Thu 05:26:37 AM 40.2470 -73.6860 29° Northeast 268 308 2,700 -930 Descending FlightAware ADS-B
Thu 05:27:05 AM 40.3160 -73.6390 27° Northeast 254 292 1,700 -1,395 Descending FlightAware ADS-B
Thu 05:27:20 AM 40.3320 -73.6280 28° Northeast 254 292 1,700  Level FlightAware ADS-B
Thu 05:27:46 AM 40.3600 -73.6110 25° Northeast 249 287 1,700  Level FlightAware ADS-B
Thu 05:28:14 AM 40.3900 -73.6040 10° North 219 252 1,700  Level FlightAware ADS-B
Thu 05:28:30 AM 40.4060 -73.6010 North 210 242 1,700  Level FlightAware ADS-B
Thu 05:28:53 AM 40.4180 -73.5990 North 210 242 1,700  Level FlightAware ADS-B
Thu 05:29:25 AM 40.4560 -73.6140 343° North 207 238 1,700  Level FlightAware ADS-B
Thu 05:29:51 AM 40.4800 -73.6260 339° North 208 239 1,700  Level FlightAware ADS-B
Thu 05:30:28 AM 40.5140 -73.6430 339° North 199 229 1,700  Level FlightAware ADS-B
Thu 05:30:45 AM 40.5260 -73.6500 336° Northwest 184 212 1,700  Level FlightAware ADS-B
Thu 05:31:09 AM 40.5450 -73.6590 340° North 182 209 1,700 -100 Level FlightAware ADS-B
Thu 05:31:45 AM 40.5720 -73.6780 332° Northwest 178 205 1,600 -462 Descending FlightAware ADS-B
Thu 05:32:14 AM 40.5880 -73.6980 316° Northwest 150 173 1,200 -771 Descending FlightAware ADS-B
Thu 05:32:55 AM 40.6070 -73.7250 313° West 148 170 700 -679 Descending FlightAware ADS-B
Thu 05:33:07 AM 40.6110 -73.7350 298° West 142 163 600 -732 Descending FlightAware ADS-B
Thu 05:33:36 AM 40.6210 -73.7560 302° West 144 166 200 -828 Descending FlightAware ADS-B
Thu 05:34:04 AM 40.6310 -73.7780 301° West 147 169 -429 Descending FlightAware ADS-B
Thu 05:34:20 AM 40.6360 -73.7900 299° West 145 167  Level FlightAware ADS-B
Thu 05:34:40 AM 40.6420 -73.8020 303° West 72 83  Level FlightAware ADS-B
Thu 05:35:00 AM 40.6430 -73.8040 303° West 25 29  Level FlightAware ADS-B
Thu 05:35:22 AM 40.6430 -73.8050 270° West 25 29  Level FlightAware ADS-B
Thu 05:36:26 AM 40.6430 -73.8010 90° East 16 18  Level FlightAware ADS-B

Login

Don't have an account? Register now (free) for customized features, flight alerts, and more!